Impacts TAF Board INFO
FOR SITUATIONAL AWARENESS. NOT TO BE USED FOR FLIGHT PLANNING PURPOSES.
IDs:

KCLT - Charlotte/Douglas In, NC, US

Issued at 0106 UTC 22 Jun 2018
Updated at 0147 UTC 22 Jun 2018
Potential Impact None Slight Moderate High
Time<<22/14Z 22/15Z 22/16Z 22/17Z 22/18Z 22/19Z 22/20Z 22/21Z 22/22Z 22/23Z 23/00Z 23/01Z 23/02Z>>
Type PRVL PRVL PRVL PRVL PRVL PRVL PRVL PRVL
  [PRB30]  
PRVL
  [PRB30]  
PRVL
  [PRB30]  
PRVL PRVL PRVL
VIS >6 >6 >6 >6 >6 >6 >6 >6
  [4]  
>6
  [4]  
>6
  [4]  
>6 >6 >6
CIG 120 -- -- -- -- -- -- --
  [60]  
--
  [60]  
--
  [60]  
-- -- --
Cover BKN SCT SCT SCT SCT SCT SCT SCT
  [BKN]  
SCT
  [BKN]  
SCT
  [BKN]  
SCT SCT SCT
FltCat VFR VFR VFR VFR VFR VFR VFR VFR
  [MVFR]  
VFR
  [MVFR]  
VFR
  [MVFR]  
VFR VFR VFR
WX -- -- -- -- -- -- -- --
  [-TSRA]  
--
  [-TSRA]  
--
  [-TSRA]  
-- -- --
WDir 230 220 220 220 220 220 220 220
[220]
220
[220]
220
[220]
220 220 220
WSpd 3 7 7 7 7 7 7 7
  [7]  
7
  [7]  
7
  [7]  
7 7 7
WGst -- -- -- -- -- -- -- --
  [--]  
--
  [--]  
--
  [--]  
-- -- --

Raw TAF
KCLT 220106Z 2201/2306 25006KT P6SM VCSH FEW035 SCT080
  FM220300 24005KT P6SM VCSH BKN120
  FM220500 23003KT P6SM BKN120
  FM221500 22007KT P6SM SCT180
  PROB30 2221/2224 4SM -TSRA BKN060CB


METAR Board
Radar Display
Forecast Discussion

FOR SITUATIONAL AWARENESS. NOT TO BE USED FOR FLIGHT PLANNING PURPOSES.